Cash, Arkansas
Current Conditions -  °F | °C
As of 1:53 PM on Saturday 25 Oct 2014 (Local Time) from KJBR Reporting Station
Clear Clear  
Wind Chill: 80°   Ceiling: Unl
Heat Index: 81°   Visibility: 10mi
Dew Point: 63°   Wind: 3mph
Humidity: 56%   Direction: 260°W
Pressure: 30.02"   Gusts: NA
Location:  35.79°N, 90.94°W
Report Text: KJBR 251853Z AUTO 26003KT 10SM CLR 27/17 A3002 RMK AO2 SLP164 T02670172
Loading
Personal Weather Stations






























Interactive Weather Map
Tropical Storm Tracking
New forecast layout! Learn more

10-Day Weather Forecast

Advertisements
Track Severe Weather on mobile